LPPT/LIS METAR and TAF weather

Enter ICAO airport designator
Station Type Date Time Source
LPPT METAR 2019/08/25 14:30 UTC NOAA

LPPT 251430Z 33009KT 300V010 CAVOK 26/13 Q1014


Station Type Date Time Source
LPPT Decoded METAR 2019/08/25 14:30 UTC NOAA

Station name not available
Aug 25, 2019 - 10:30 AM EDT / 2019.08.25 1430 UTC
Wind: from the NNW (330 degrees) at 10 MPH (9 KT) (direction variable):0
Visibility: greater than 7 mile(s):0
Temperature: 78 F (26 C)
Dew Point: 55 F (13 C)
Relative Humidity: 44%
Pressure (altimeter): 29.94 in. Hg (1014 hPa)
ob: LPPT 251430Z 33009KT 300V010 CAVOK 26/13 Q1014
cycle: 14

Station Type Date Time Source
LPPT TAF 2019/08/25 12:18 UTC NOAA

TAF LPPT 251100Z 2512/2618 30008KT 9999 FEW030
TEMPO 2512/2618 FEW035CB
BECMG 2513/2516 33015KT
BECMG 2522/2524 32008KT SCT015
BECMG 2608/2610 07007KT FEW030
BECMG 2614/2616 34013KT

Example: see airport list